Aroazes, Brazil
Current Conditions -  °F | °C
As of 2:00 AM on Thursday 23 Oct 2014 (Local Time) from SBTE Reporting Station
Clear Clear  
Wind Chill: 79°   Ceiling: Unl
Heat Index: 82°   Visibility: 6mi
Dew Point: 73°   Wind: 2mph
Humidity: 83%   Direction: 360°N
Pressure: 29.85"   Gusts: NA
Location:  6.12°S, 41.79°W
Report Text: SBTE 230500Z 36002KT CAVOK 26/23 Q1011
Loading
Personal Weather Stations






























Interactive Weather Map
Tropical Storm Tracking
New forecast layout! Learn more

10-Day Weather Forecast

Advertisements
Track Severe Weather on mobile